createdAt,value
2019-06-07T00:00:04.140Z,78.12
2019-06-07T00:00:40.293Z,78.53
2019-06-07T00:01:16.347Z,78.39
2019-06-07T00:01:50.066Z,78.22
2019-06-07T00:02:25.533Z,77.91
2019-06-07T00:03:01.061Z,77.87
2019-06-07T00:03:36.242Z,78.32
2019-06-07T00:04:13.527Z,78.02
2019-06-07T00:04:47.257Z,78.02
2019-06-07T00:05:22.900Z,77.91
2019-06-07T00:05:58.291Z,77.98
2019-06-07T00:06:33.817Z,77.81
2019-06-07T00:07:10.269Z,78.19
2019-06-07T00:07:44.527Z,78.12
2019-06-07T00:08:27.300Z,77.98
2019-06-07T00:08:55.540Z,77.87
2019-06-07T00:09:30.814Z,78.19
2019-06-07T00:10:06.831Z,77.78
2019-06-07T00:10:41.846Z,77.87
2019-06-07T00:11:20.322Z,77.78
2019-06-07T00:11:52.562Z,78.32
2019-06-07T00:12:28.198Z,78.89
2019-06-07T00:13:03.569Z,78.80
2019-06-07T00:13:38.825Z,78.28
2019-06-07T00:14:16.058Z,77.98
2019-06-07T00:14:49.827Z,77.47
2019-06-07T00:15:28.713Z,78.08
2019-06-07T00:16:00.856Z,77.26
2019-06-07T00:16:36.127Z,78.28
2019-06-07T00:17:15.105Z,78.02
2019-06-07T00:17:47.047Z,78.02
2019-06-07T00:18:25.856Z,77.91
2019-06-07T00:18:58.063Z,78.02
2019-06-07T00:19:33.482Z,78.87
2019-06-07T00:20:13.175Z,79.24
2019-06-07T00:20:44.341Z,79.75
2019-06-07T00:21:20.373Z,79.03
2019-06-07T00:22:16.016Z,78.42
2019-06-07T00:22:33.371Z,78.73
2019-06-07T00:23:05.916Z,78.32
2019-06-07T00:23:41.258Z,78.56
2019-06-07T00:24:18.642Z,78.66
2019-06-07T00:24:52.001Z,78.87
2019-06-07T00:25:27.229Z,79.17
2019-06-07T00:26:02.597Z,80.46
2019-06-07T00:26:57.146Z,78.97
2019-06-07T00:27:15.017Z,79.07
2019-06-07T00:27:48.752Z,79.27
2019-06-07T00:28:24.458Z,78.97
2019-06-07T00:28:59.676Z,78.87
2019-06-07T00:29:35.459Z,79.07
2019-06-07T00:30:34.926Z,79.21
2019-06-07T00:30:52.177Z,79.79
2019-06-07T00:31:24.142Z,79.27
2019-06-07T00:31:57.682Z,79.17
2019-06-07T00:32:33.103Z,79.27
2019-06-07T00:33:11.032Z,79.17
2019-06-07T00:33:44.116Z,79.17
2019-06-07T00:34:22.130Z,79.79
2019-06-07T00:34:54.639Z,80.09
2019-06-07T00:35:30.069Z,79.27
2019-06-07T00:36:05.423Z,79.17
2019-06-07T00:36:40.584Z,78.97
2019-06-07T00:37:16.431Z,79.38
2019-06-07T00:37:51.681Z,79.95
2019-06-07T00:38:27.214Z,79.14
2019-06-07T00:39:02.881Z,78.73
2019-06-07T00:39:38.512Z,78.83
2019-06-07T00:40:19.737Z,79.34
2019-06-07T00:40:49.250Z,78.83
2019-06-07T00:41:24.944Z,79.03
2019-06-07T00:42:00.458Z,78.53
2019-06-07T00:42:36.024Z,78.32
2019-06-07T00:43:14.155Z,78.63
2019-06-07T00:43:46.937Z,78.83
2019-06-07T00:44:23.368Z,78.73
2019-06-07T00:44:58.034Z,78.83
2019-06-07T00:45:33.392Z,78.77
2019-06-07T00:46:08.720Z,78.56
2019-06-07T00:46:44.097Z,79.17
2019-06-07T00:47:23.631Z,78.87
2019-06-07T00:47:54.507Z,78.56
2019-06-07T00:48:32.936Z,79.32
2019-06-07T00:49:05.640Z,79.32
2019-06-07T00:49:41.751Z,79.72
2019-06-07T00:50:16.367Z,80.02
2019-06-07T00:50:51.585Z,80.02
2019-06-07T00:51:26.720Z,79.93
2019-06-07T00:52:02.014Z,79.38
2019-06-07T00:53:17.280Z,79.11
2019-06-07T00:53:48.364Z,79.41
2019-06-07T00:54:24.846Z,79.21
2019-06-07T00:54:59.147Z,80.09
2019-06-07T00:55:34.562Z,78.87
2019-06-07T00:56:09.691Z,78.97
2019-06-07T00:56:44.875Z,79.17
2019-06-07T00:57:21.620Z,79.21
2019-06-07T00:57:55.681Z,79.21
2019-06-07T00:58:30.718Z,79.93
2019-06-07T00:59:11.165Z,79.82
2019-06-07T00:59:41.522Z,80.07
2019-06-07T01:00:18.343Z,80.33
2019-06-07T01:00:52.581Z,80.94
2019-06-07T01:01:27.756Z,80.54
2019-06-07T01:02:03.509Z,80.50
2019-06-07T01:02:38.918Z,80.54
2019-06-07T01:03:14.995Z,79.89
2019-06-07T01:03:50.212Z,79.52
2019-06-07T01:04:26.061Z,79.41
2019-06-07T01:05:01.041Z,79.93
2019-06-07T01:05:36.512Z,79.82
2019-06-07T01:06:12.602Z,80.13
2019-06-07T01:06:47.241Z,80.43
2019-06-07T01:07:24.311Z,80.33
2019-06-07T01:07:58.187Z,80.33
2019-06-07T01:08:33.650Z,80.54
2019-06-07T01:09:09.379Z,80.02
2019-06-07T01:09:44.860Z,80.43
2019-06-07T01:10:42.655Z,80.54
2019-06-07T01:10:55.494Z,80.64
2019-06-07T01:11:30.625Z,80.54
2019-06-07T01:12:05.919Z,80.23
2019-06-07T01:12:41.248Z,80.33
2019-06-07T01:13:18.810Z,80.70
2019-06-07T01:13:52.375Z,81.01
2019-06-07T01:14:28.370Z,80.80
2019-06-07T01:15:02.974Z,80.26
2019-06-07T01:15:38.404Z,80.56
2019-06-07T01:16:13.855Z,79.85
2019-06-07T01:16:57.012Z,79.75
2019-06-07T01:17:39.877Z,79.95
2019-06-07T01:18:33.715Z,80.36
2019-06-07T01:18:39.946Z,80.36
2019-06-07T01:19:11.417Z,80.05
2019-06-07T01:19:46.951Z,80.46
2019-06-07T01:20:24.195Z,80.26
2019-06-07T01:20:57.838Z,79.95
2019-06-07T01:21:33.003Z,79.54
2019-06-07T01:22:08.637Z,79.34
2019-06-07T01:22:43.903Z,78.93
2019-06-07T01:23:59.852Z,79.34
2019-06-07T01:24:11.047Z,79.54
2019-06-07T01:24:30.064Z,78.93
2019-06-07T01:25:05.453Z,79.64
2019-06-07T01:25:40.929Z,78.93
2019-06-07T01:26:18.925Z,79.03
2019-06-07T01:26:52.076Z,79.03
2019-06-07T01:27:28.678Z,79.64
2019-06-07T01:28:03.035Z,79.14
2019-06-07T01:28:38.298Z,78.46
2019-06-07T01:29:13.705Z,78.56
2019-06-07T01:29:49.433Z,79.48
2019-06-07T01:30:26.505Z,79.54
2019-06-07T01:31:00.205Z,79.34
2019-06-07T01:31:35.431Z,79.38
2019-06-07T01:32:10.917Z,79.89
2019-06-07T01:32:46.345Z,79.85
2019-06-07T01:33:23.500Z,79.64
2019-06-07T01:33:56.944Z,79.34
2019-06-07T01:34:32.213Z,79.75
2019-06-07T01:35:07.560Z,79.54
2019-06-07T01:35:43.173Z,79.89
2019-06-07T01:36:19.574Z,80.54
2019-06-07T01:36:53.884Z,80.94
2019-06-07T01:37:30.320Z,81.04
2019-06-07T01:38:04.732Z,80.50
2019-06-07T01:38:40.513Z,79.68
2019-06-07T01:39:16.336Z,79.79
2019-06-07T01:39:51.426Z,79.89
2019-06-07T01:40:30.473Z,80.60
2019-06-07T01:41:02.278Z,79.79
2019-06-07T01:41:37.748Z,79.38
2019-06-07T01:42:12.889Z,79.41
2019-06-07T01:42:48.170Z,80.13
2019-06-07T01:43:28.407Z,79.82
2019-06-07T01:43:59.092Z,79.89
2019-06-07T01:44:34.224Z,80.13
2019-06-07T01:45:09.999Z,80.19
2019-06-07T01:45:45.459Z,80.19
2019-06-07T01:46:21.375Z,79.89
2019-06-07T01:46:56.181Z,79.72
2019-06-07T01:47:32.090Z,79.79
2019-06-07T01:48:06.878Z,80.50
2019-06-07T01:48:49.337Z,79.68
2019-06-07T01:49:17.394Z,79.48
2019-06-07T01:49:52.873Z,79.17
2019-06-07T01:50:29.769Z,79.38
2019-06-07T01:51:03.822Z,79.68
2019-06-07T01:51:39.259Z,79.68
2019-06-07T01:52:14.828Z,79.27
2019-06-07T01:52:50.099Z,78.87
2019-06-07T01:53:26.431Z,79.17
2019-06-07T01:54:48.647Z,79.38
2019-06-07T01:54:56.052Z,79.11
2019-06-07T01:55:11.581Z,79.21
2019-06-07T01:55:47.182Z,79.17
2019-06-07T01:56:24.446Z,79.48
2019-06-07T01:56:57.990Z,79.07
2019-06-07T01:57:45.671Z,79.17
2019-06-07T01:58:09.001Z,79.07
2019-06-07T01:58:44.332Z,79.32
2019-06-07T01:59:21.878Z,78.91
2019-06-07T01:59:55.061Z,79.21
2019-06-07T02:00:32.526Z,79.21
2019-06-07T02:01:05.601Z,79.21
2019-06-07T02:01:41.078Z,79.93
2019-06-07T02:02:17.676Z,80.27
2019-06-07T02:02:51.836Z,80.27
2019-06-07T02:03:32.246Z,79.93
2019-06-07T02:04:03.265Z,80.43
2019-06-07T02:04:38.199Z,79.86
2019-06-07T02:05:13.482Z,79.96
2019-06-07T02:05:48.873Z,80.07
2019-06-07T02:06:27.980Z,79.75
2019-06-07T02:06:59.682Z,79.96
2019-06-07T02:07:35.066Z,79.66
2019-06-07T02:08:10.401Z,79.66
2019-06-07T02:08:45.673Z,79.96
2019-06-07T02:09:21.007Z,79.75
2019-06-07T02:09:56.190Z,80.57
2019-06-07T02:10:33.586Z,80.57
2019-06-07T02:11:06.825Z,80.88
2019-06-07T02:11:42.061Z,80.27
2019-06-07T02:12:28.021Z,79.96
2019-06-07T02:12:53.046Z,80.47
2019-06-07T02:13:30.591Z,80.68
2019-06-07T02:14:03.961Z,80.37
2019-06-07T02:14:39.443Z,79.96
2019-06-07T02:15:14.925Z,80.88
2019-06-07T02:15:50.346Z,80.47
2019-06-07T02:16:29.155Z,80.68
2019-06-07T02:17:01.067Z,80.78
2019-06-07T02:17:36.297Z,80.47
2019-06-07T02:18:11.791Z,80.78
2019-06-07T02:19:01.288Z,80.68
2019-06-07T02:19:24.216Z,80.37
2019-06-07T02:19:57.606Z,80.47
2019-06-07T02:20:34.564Z,80.88
2019-06-07T02:21:08.467Z,80.88
2019-06-07T02:21:43.748Z,80.88
2019-06-07T02:22:21.309Z,80.47
2019-06-07T02:22:54.547Z,80.57
2019-06-07T02:23:31.594Z,80.37
2019-06-07T02:24:05.538Z,80.82
2019-06-07T02:24:40.984Z,80.71
2019-06-07T02:25:37.139Z,80.71
2019-06-07T02:25:51.516Z,80.91
2019-06-07T02:26:29.945Z,81.32
2019-06-07T02:27:02.540Z,81.26
2019-06-07T02:27:37.768Z,81.57
2019-06-07T02:28:27.670Z,81.37
2019-06-07T02:28:48.486Z,81.05
2019-06-07T02:29:25.409Z,82.59
2019-06-07T02:29:59.429Z,82.59
2019-06-07T02:30:44.919Z,82.49
2019-06-07T02:31:10.057Z,82.28
2019-06-07T02:31:45.481Z,81.87
2019-06-07T02:32:21.763Z,81.87
2019-06-07T02:32:56.036Z,82.08
2019-06-07T02:33:35.152Z,82.39
2019-06-07T02:34:06.826Z,81.94
2019-06-07T02:34:42.285Z,81.02
2019-06-07T02:35:17.941Z,81.12
2019-06-07T02:35:53.739Z,81.23
2019-06-07T02:36:35.188Z,81.32
2019-06-07T02:37:04.708Z,81.43
2019-06-07T02:37:40.021Z,81.43
2019-06-07T02:38:15.598Z,81.12
2019-06-07T02:38:50.933Z,81.23
2019-06-07T02:39:28.820Z,81.23
2019-06-07T02:40:01.962Z,81.23
2019-06-07T02:40:37.678Z,81.26
2019-06-07T02:41:13.007Z,81.37
2019-06-07T02:41:48.350Z,81.57
2019-06-07T02:42:26.127Z,82.22
2019-06-07T02:42:59.345Z,82.53
2019-06-07T02:43:36.992Z,82.93
2019-06-07T02:44:10.642Z,82.67
2019-06-07T02:44:45.878Z,83.38
2019-06-07T02:45:24.208Z,83.28
2019-06-07T02:46:12.382Z,83.48
2019-06-07T02:46:40.181Z,84.20
2019-06-07T02:47:07.669Z,84.30
2019-06-07T02:47:43.294Z,84.41
2019-06-07T02:48:18.473Z,84.30
2019-06-07T02:48:54.121Z,84.50
2019-06-07T02:49:36.088Z,83.83
2019-06-07T02:50:05.048Z,84.09
2019-06-07T02:50:40.324Z,84.20
2019-06-07T02:51:15.693Z,83.79
2019-06-07T02:51:51.231Z,84.20
2019-06-07T02:52:30.797Z,83.38
2019-06-07T02:53:01.758Z,83.59
2019-06-07T02:53:40.103Z,83.93
2019-06-07T02:54:12.873Z,84.44
2019-06-07T02:54:48.319Z,84.55
2019-06-07T02:55:27.432Z,84.44
2019-06-07T02:56:34.807Z,84.09
2019-06-07T02:56:48.752Z,84.20
2019-06-07T02:57:11.026Z,84.44
2019-06-07T02:57:46.663Z,84.03
2019-06-07T02:58:21.926Z,84.55
2019-06-07T02:58:57.488Z,84.03
2019-06-07T02:59:56.717Z,84.24
2019-06-07T03:00:40.535Z,84.34
2019-06-07T03:01:00.730Z,84.14
2019-06-07T03:01:18.924Z,84.44
2019-06-07T03:01:54.242Z,84.34
2019-06-07T03:02:34.289Z,84.38
2019-06-07T03:03:05.176Z,84.48
2019-06-07T03:03:40.592Z,84.69
2019-06-07T03:04:17.135Z,84.79
2019-06-07T03:04:51.403Z,85.91
2019-06-07T03:05:27.376Z,85.61
2019-06-07T03:06:02.275Z,85.30
2019-06-07T03:06:43.244Z,84.69
2019-06-07T03:07:13.025Z,85.81
2019-06-07T03:07:48.685Z,85.40
2019-06-07T03:08:24.231Z,85.30
2019-06-07T03:08:59.581Z,84.69
2019-06-07T03:09:36.937Z,85.50
2019-06-07T03:10:10.191Z,85.50
2019-06-07T03:10:45.458Z,85.10
2019-06-07T03:11:20.946Z,85.40
2019-06-07T03:11:56.073Z,85.71
2019-06-07T03:12:33.477Z,85.61
2019-06-07T03:13:06.804Z,85.71
2019-06-07T03:13:42.129Z,85.71
2019-06-07T03:14:17.813Z,85.81
2019-06-07T03:14:52.936Z,85.71
2019-06-07T03:15:37.349Z,85.96
2019-06-07T03:16:03.800Z,85.71
2019-06-07T03:16:39.236Z,85.96
2019-06-07T03:17:14.694Z,86.26
2019-06-07T03:17:50.224Z,86.26
2019-06-07T03:18:28.491Z,86.26
2019-06-07T03:19:01.291Z,86.26
2019-06-07T03:19:37.817Z,86.12
2019-06-07T03:20:12.392Z,86.12
2019-06-07T03:21:02.803Z,86.26
2019-06-07T03:21:23.325Z,86.05
2019-06-07T03:21:58.784Z,86.26
2019-06-07T03:22:37.997Z,86.05
2019-06-07T03:23:09.587Z,86.36
2019-06-07T03:23:44.593Z,86.26
2019-06-07T03:24:20.261Z,86.05
2019-06-07T03:24:55.897Z,86.26
2019-06-07T03:25:33.530Z,85.96
2019-06-07T03:26:07.104Z,85.85
2019-06-07T03:27:34.686Z,85.64
2019-06-07T03:27:53.004Z,86.16
2019-06-07T03:28:29.996Z,86.26
2019-06-07T03:29:04.056Z,85.85
2019-06-07T03:29:41.162Z,86.02
2019-06-07T03:31:01.528Z,85.85
2019-06-07T03:31:28.452Z,86.02
2019-06-07T03:32:01.376Z,85.85
2019-06-07T03:32:45.705Z,86.05
2019-06-07T03:33:12.280Z,85.96
2019-06-07T03:33:47.707Z,85.96
2019-06-07T03:34:23.076Z,85.96
2019-06-07T03:34:58.451Z,85.96
2019-06-07T03:35:35.331Z,86.05
2019-06-07T03:36:23.364Z,85.96
2019-06-07T03:36:45.043Z,85.96
2019-06-07T03:37:20.534Z,86.05
2019-06-07T03:37:55.892Z,85.30
2019-06-07T03:38:34.412Z,85.50
2019-06-07T03:39:06.929Z,85.85
2019-06-07T03:39:42.054Z,85.61
2019-06-07T03:40:17.438Z,85.30
2019-06-07T03:40:52.814Z,84.99
2019-06-07T03:41:29.319Z,85.61
2019-06-07T03:42:06.632Z,85.61
2019-06-07T03:42:40.217Z,85.61
2019-06-07T03:43:14.626Z,85.71
2019-06-07T03:43:50.073Z,85.50
2019-06-07T03:44:27.802Z,85.30
2019-06-07T03:45:01.187Z,85.61
2019-06-07T03:45:41.194Z,85.50
2019-06-07T03:46:12.252Z,85.91
2019-06-07T03:46:47.580Z,85.50
2019-06-07T03:47:23.146Z,84.69
2019-06-07T03:47:58.512Z,85.40
2019-06-07T03:48:36.436Z,85.50
2019-06-07T03:49:09.612Z,85.30
2019-06-07T03:49:44.874Z,84.89
2019-06-07T03:50:20.363Z,84.79
2019-06-07T03:51:04.301Z,84.99
2019-06-07T03:51:32.934Z,84.89
2019-06-07T03:52:06.685Z,84.89
2019-06-07T03:52:42.205Z,84.99
2019-06-07T03:53:17.774Z,85.61
2019-06-07T03:53:53.210Z,85.50
2019-06-07T03:54:29.546Z,84.99
2019-06-07T03:55:03.746Z,84.69
2019-06-07T03:55:41.269Z,85.10
2019-06-07T03:56:15.384Z,85.30
2019-06-07T03:56:49.937Z,84.99
2019-06-07T03:57:25.409Z,85.10
2019-06-07T03:58:30.689Z,84.95
2019-06-07T03:58:47.946Z,84.85
2019-06-07T03:59:12.146Z,84.24
2019-06-07T03:59:47.555Z,84.24
2019-06-07T04:00:23.127Z,84.14
2019-06-07T04:01:01.985Z,84.34
2019-06-07T04:01:34.899Z,84.34
2019-06-07T04:02:09.026Z,84.34
2019-06-07T04:02:44.662Z,84.34
2019-06-07T04:03:33.609Z,84.00
2019-06-07T04:03:55.166Z,83.18
2019-06-07T04:04:32.286Z,84.30
2019-06-07T04:05:06.219Z,84.20
2019-06-07T04:05:43.635Z,84.50
2019-06-07T04:06:16.983Z,83.69
2019-06-07T04:06:52.582Z,84.30
2019-06-07T04:07:28.925Z,83.48
2019-06-07T04:08:03.512Z,83.18
2019-06-07T04:08:41.955Z,83.07
2019-06-07T04:09:14.369Z,83.38
2019-06-07T04:09:49.913Z,83.48
2019-06-07T04:10:44.848Z,83.69
2019-06-07T04:11:00.962Z,83.18
2019-06-07T04:11:39.423Z,83.28
2019-06-07T04:12:11.905Z,83.65
2019-06-07T04:12:47.435Z,83.04
2019-06-07T04:13:22.895Z,82.83
2019-06-07T04:13:58.259Z,83.04
2019-06-07T04:14:35.022Z,82.73
2019-06-07T04:15:08.973Z,83.04
2019-06-07T04:15:44.413Z,82.89
2019-06-07T04:16:20.029Z,82.28
2019-06-07T04:16:55.173Z,81.26
2019-06-07T04:17:32.065Z,81.81
2019-06-07T04:18:05.818Z,81.81
2019-06-07T04:18:42.428Z,81.81
2019-06-07T04:19:16.720Z,81.91
2019-06-07T04:19:52.295Z,81.98
2019-06-07T04:20:29.380Z,81.87
2019-06-07T04:21:03.225Z,81.87
2019-06-07T04:21:42.529Z,81.16
2019-06-07T04:22:14.333Z,81.77
2019-06-07T04:22:49.810Z,80.75
2019-06-07T04:23:28.087Z,81.26
2019-06-07T04:24:00.414Z,81.37
2019-06-07T04:24:38.909Z,81.51
2019-06-07T04:25:11.120Z,81.87
2019-06-07T04:25:46.656Z,82.32
2019-06-07T04:26:22.456Z,82.08
2019-06-07T04:26:58.130Z,81.67
2019-06-07T04:27:35.533Z,82.08
2019-06-07T04:28:08.457Z,81.98
2019-06-07T04:30:00.034Z,82.18
2019-06-07T04:30:07.520Z,81.77
2019-06-07T04:30:32.132Z,81.51
2019-06-07T04:31:06.396Z,81.26
2019-06-07T04:31:42.882Z,81.37
2019-06-07T04:32:17.417Z,81.67
2019-06-07T04:32:52.853Z,81.37
2019-06-07T04:33:28.793Z,81.37
2019-06-07T04:34:03.476Z,81.16
2019-06-07T04:34:42.608Z,81.87
2019-06-07T04:35:14.001Z,81.05
2019-06-07T04:35:49.983Z,81.16
2019-06-07T04:36:41.845Z,81.46
2019-06-07T04:37:00.624Z,81.16
2019-06-07T04:37:39.306Z,81.23
2019-06-07T04:38:11.541Z,81.46
2019-06-07T04:38:47.075Z,81.43
2019-06-07T04:39:22.347Z,81.05
2019-06-07T04:39:57.685Z,81.12
2019-06-07T04:40:34.400Z,81.53
2019-06-07T04:41:08.399Z,81.32
2019-06-07T04:41:43.752Z,81.43
2019-06-07T04:42:19.091Z,80.30
2019-06-07T04:42:54.265Z,80.71
2019-06-07T04:43:31.046Z,80.51
2019-06-07T04:44:05.245Z,80.82
2019-06-07T04:44:42.612Z,80.20
2019-06-07T04:45:33.193Z,81.23
2019-06-07T04:45:51.649Z,81.53
2019-06-07T04:46:26.993Z,81.12
2019-06-07T04:47:02.122Z,81.23
2019-06-07T04:47:41.716Z,80.82
2019-06-07T04:48:13.233Z,81.02
2019-06-07T04:48:49.008Z,80.51
2019-06-07T04:49:24.353Z,80.71
2019-06-07T04:49:59.844Z,81.23
2019-06-07T04:50:37.819Z,81.12
2019-06-07T04:51:10.450Z,81.02
2019-06-07T04:51:45.937Z,81.02
2019-06-07T04:52:21.185Z,80.82
2019-06-07T04:52:56.230Z,80.91
2019-06-07T04:53:35.285Z,80.91
2019-06-07T04:54:07.252Z,80.91
2019-06-07T04:54:45.878Z,80.51
2019-06-07T04:55:17.760Z,81.12
2019-06-07T04:55:53.538Z,81.18
2019-06-07T04:56:30.054Z,80.78
2019-06-07T04:57:04.206Z,80.98
2019-06-07T04:57:42.717Z,80.88
2019-06-07T04:58:15.238Z,80.78
2019-06-07T04:58:50.971Z,80.98
2019-06-07T05:00:04.340Z,80.64
2019-06-07T05:00:22.289Z,80.64
2019-06-07T05:00:58.981Z,79.35
2019-06-07T05:01:26.906Z,79.14
2019-06-07T05:01:48.416Z,79.45
2019-06-07T05:02:23.649Z,79.86
2019-06-07T05:02:58.829Z,79.96
2019-06-07T05:03:37.073Z,80.16
2019-06-07T05:04:09.645Z,80.54
2019-06-07T05:04:44.993Z,80.02
2019-06-07T05:05:20.652Z,79.86
2019-06-07T05:05:55.998Z,79.82
2019-06-07T05:06:34.897Z,79.82
2019-06-07T05:07:06.553Z,79.32
2019-06-07T05:07:46.053Z,79.32
2019-06-07T05:08:27.432Z,79.72
2019-06-07T05:08:52.922Z,79.32
2019-06-07T05:09:29.972Z,79.32
2019-06-07T05:10:04.142Z,78.97
2019-06-07T05:10:43.447Z,79.48
2019-06-07T05:11:15.285Z,79.48
2019-06-07T05:11:50.462Z,79.27
2019-06-07T05:12:26.045Z,78.56
2019-06-07T05:13:01.587Z,78.56
2019-06-07T05:13:39.008Z,78.87
2019-06-07T05:14:12.701Z,78.46
2019-06-07T05:14:47.786Z,78.26
2019-06-07T05:15:23.413Z,78.56
2019-06-07T05:15:58.892Z,78.56
2019-06-07T05:16:36.625Z,78.53
2019-06-07T05:17:09.743Z,78.53
2019-06-07T05:17:45.154Z,78.93
2019-06-07T05:18:20.645Z,78.73
2019-06-07T05:18:56.278Z,78.53
2019-06-07T05:19:35.307Z,78.53
2019-06-07T05:20:07.209Z,78.69
2019-06-07T05:20:44.551Z,78.19
2019-06-07T05:21:17.817Z,78.08
2019-06-07T05:22:04.481Z,77.61
2019-06-07T05:22:31.529Z,77.47
2019-06-07T05:23:04.964Z,76.96
2019-06-07T05:24:05.651Z,76.25
2019-06-07T05:24:15.873Z,76.35
2019-06-07T05:24:50.906Z,77.37
2019-06-07T05:25:26.373Z,77.26
2019-06-07T05:26:01.912Z,77.87
2019-06-07T05:26:39.161Z,77.87
2019-06-07T05:27:12.669Z,77.17
2019-06-07T05:27:48.249Z,77.13
2019-06-07T05:28:23.674Z,77.74
2019-06-07T05:28:59.053Z,77.94
2019-06-07T05:29:36.775Z,76.48
2019-06-07T05:30:36.625Z,76.42
2019-06-07T05:31:05.120Z,76.68
2019-06-07T05:31:21.069Z,76.59
2019-06-07T05:31:56.340Z,75.67
2019-06-07T05:32:32.864Z,75.77
2019-06-07T05:33:07.262Z,75.77
2019-06-07T05:33:43.537Z,75.37
2019-06-07T05:34:18.480Z,75.46
2019-06-07T05:34:53.858Z,75.33
2019-06-07T05:35:30.563Z,75.33
2019-06-07T05:36:04.678Z,74.92
2019-06-07T05:36:42.498Z,74.72
2019-06-07T05:37:15.319Z,74.31
2019-06-07T05:37:51.274Z,73.09
2019-06-07T05:38:26.825Z,74.41
2019-06-07T05:39:02.077Z,74.99
2019-06-07T05:39:40.400Z,75.23
2019-06-07T05:40:12.891Z,73.77
2019-06-07T05:40:49.019Z,73.80
2019-06-07T05:41:24.446Z,74.58
2019-06-07T05:41:59.850Z,74.75
2019-06-07T05:42:38.573Z,73.63
2019-06-07T05:43:10.253Z,73.02
2019-06-07T05:43:55.101Z,73.13
2019-06-07T05:44:21.079Z,71.67
2019-06-07T05:44:56.515Z,71.26
2019-06-07T05:45:32.345Z,71.36
2019-06-07T05:46:07.563Z,71.57
2019-06-07T05:46:46.691Z,72.99
2019-06-07T05:47:18.807Z,72.69
2019-06-07T05:47:54.921Z,71.88
2019-06-07T05:48:29.838Z,72.58
2019-06-07T05:49:05.136Z,71.53
2019-06-07T05:49:43.844Z,71.97
2019-06-07T05:50:38.442Z,72.45
2019-06-07T05:50:56.823Z,71.40
2019-06-07T05:51:26.615Z,71.40
2019-06-07T05:52:01.938Z,70.28
2019-06-07T05:52:41.718Z,70.08
2019-06-07T05:53:12.816Z,69.54
2019-06-07T05:53:48.145Z,69.00
2019-06-07T05:54:23.283Z,68.84
2019-06-07T05:54:58.451Z,67.79
2019-06-07T05:55:35.165Z,66.35
2019-06-07T05:56:09.315Z,64.29
2019-06-07T05:56:45.315Z,64.64
2019-06-07T05:57:20.056Z,61.95
2019-06-07T05:57:55.492Z,61.82
2019-06-07T05:58:30.689Z,59.75
2019-06-07T05:59:06.216Z,58.58
2019-06-07T05:59:44.268Z,57.12
2019-06-07T06:00:16.830Z,56.29
2019-06-07T06:00:52.539Z,54.75
2019-06-07T06:01:42.816Z,54.55
2019-06-07T06:02:21.205Z,54.30
2019-06-07T06:02:58.583Z,53.47
2019-06-07T06:03:14.125Z,52.62
2019-06-07T06:03:49.653Z,52.19
2019-06-07T06:04:24.974Z,50.57
2019-06-07T06:05:00.481Z,50.07
2019-06-07T06:05:41.649Z,50.99
2019-06-07T06:06:11.085Z,50.37
2019-06-07T06:06:47.214Z,50.46
2019-06-07T06:07:21.919Z,49.24
2019-06-07T06:07:57.401Z,48.36
2019-06-07T06:08:36.106Z,49.54
2019-06-07T06:09:13.831Z,48.39
2019-06-07T06:09:45.950Z,49.19
2019-06-07T06:10:19.351Z,46.77
2019-06-07T06:10:54.890Z,47.45
2019-06-07T06:11:47.037Z,46.55
2019-06-07T06:12:06.160Z,47.81
2019-06-07T06:12:46.046Z,47.79
2019-06-07T06:13:16.974Z,49.24
2019-06-07T06:14:06.538Z,49.22
2019-06-07T06:14:28.081Z,48.99
2019-06-07T06:15:03.470Z,48.55
2019-06-07T06:15:48.634Z,46.65
2019-06-07T06:16:14.190Z,46.23
2019-06-07T06:16:50.257Z,46.50
2019-06-07T06:17:25.739Z,46.11
2019-06-07T06:18:01.364Z,44.87
2019-06-07T06:18:38.040Z,46.54
2019-06-07T06:19:12.177Z,45.22
2019-06-07T06:19:50.403Z,44.46
2019-06-07T06:20:22.904Z,45.66
2019-06-07T06:21:18.048Z,44.87
2019-06-07T06:21:34.059Z,43.85
2019-06-07T06:22:09.634Z,43.82
2019-06-07T06:22:50.572Z,45.04
2019-06-07T06:23:20.583Z,43.80
2019-06-07T06:23:55.885Z,42.49
2019-06-07T06:24:31.380Z,43.49
2019-06-07T06:25:34.830Z,42.86
2019-06-07T06:25:49.782Z,43.16
2019-06-07T06:26:17.239Z,42.07
2019-06-07T06:27:00.312Z,42.59
2019-06-07T06:28:03.330Z,42.71
2019-06-07T06:28:10.839Z,42.67
2019-06-07T06:28:40.054Z,42.17
2019-06-07T06:29:14.368Z,41.97
2019-06-07T06:29:50.301Z,42.37
2019-06-07T06:30:24.992Z,41.16
2019-06-07T06:31:00.639Z,41.61
2019-06-07T06:31:37.759Z,40.58
2019-06-07T06:32:48.819Z,41.55
2019-06-07T06:32:52.745Z,39.45
2019-06-07T06:33:33.777Z,40.28
2019-06-07T06:33:57.433Z,40.56
2019-06-07T06:34:32.596Z,39.97
2019-06-07T06:35:08.060Z,40.33
2019-06-07T06:35:48.406Z,38.26
2019-06-07T06:36:19.411Z,37.45
2019-06-07T06:36:54.382Z,39.53
2019-06-07T06:37:29.666Z,40.30
2019-06-07T06:38:05.321Z,38.10
2019-06-07T06:38:41.393Z,40.64
2019-06-07T06:39:15.984Z,41.63
2019-06-07T06:39:51.262Z,40.86
2019-06-07T06:40:26.610Z,41.99
2019-06-07T06:41:15.393Z,43.37
2019-06-07T06:41:53.738Z,43.75
2019-06-07T06:42:12.863Z,43.30
2019-06-07T06:42:49.053Z,42.15
2019-06-07T06:43:23.805Z,41.46
2019-06-07T06:43:59.546Z,41.97
2019-06-07T06:44:35.030Z,41.67
2019-06-07T06:45:10.269Z,42.67
2019-06-07T06:45:47.823Z,42.77
2019-06-07T06:46:38.103Z,40.86
2019-06-07T06:46:58.306Z,40.92
2019-06-07T06:47:32.668Z,39.51
2019-06-07T06:48:07.975Z,41.17
2019-06-07T06:48:48.297Z,40.48
2019-06-07T06:49:19.119Z,38.78
2019-06-07T06:49:54.765Z,40.54
2019-06-07T06:50:30.159Z,41.75
2019-06-07T06:51:05.393Z,40.52
2019-06-07T06:51:43.005Z,41.22
2019-06-07T06:52:16.457Z,41.24
2019-06-07T06:52:54.642Z,40.48
2019-06-07T06:53:27.482Z,39.47
2019-06-07T06:54:02.693Z,37.75
2019-06-07T06:54:42.958Z,39.02
2019-06-07T06:55:13.411Z,37.62
2019-06-07T06:55:50.932Z,37.22
2019-06-07T06:56:24.336Z,37.51
2019-06-07T06:57:18.091Z,36.94
2019-06-07T06:57:35.409Z,37.51
2019-06-07T06:58:11.399Z,35.73
2019-06-07T06:59:33.077Z,37.10
2019-06-07T06:59:38.188Z,36.43
2019-06-07T06:59:57.717Z,36.82
2019-06-07T07:00:43.549Z,37.60
2019-06-07T07:01:08.653Z,37.02
2019-06-07T07:01:45.145Z,36.61
2019-06-07T07:02:19.633Z,36.71
2019-06-07T07:03:41.838Z,37.10
2019-06-07T07:03:57.146Z,36.51
2019-06-07T07:04:13.050Z,37.20
2019-06-07T07:04:42.283Z,36.41
2019-06-07T07:05:16.377Z,38.53
2019-06-07T07:05:54.738Z,36.64
2019-06-07T07:06:27.267Z,40.70
2019-06-07T07:07:02.746Z,39.49
2019-06-07T07:07:37.982Z,40.72
2019-06-07T07:08:13.382Z,39.65
2019-06-07T07:08:50.839Z,42.07
2019-06-07T07:09:24.502Z,41.55
2019-06-07T07:10:00.209Z,41.66
2019-06-07T07:10:35.226Z,40.54
2019-06-07T07:11:10.468Z,40.22
2019-06-07T07:12:08.955Z,40.64
2019-06-07T07:12:21.543Z,40.62
2019-06-07T07:12:57.132Z,40.41
2019-06-07T07:13:32.281Z,39.39
2019-06-07T07:14:07.557Z,40.56
2019-06-07T07:14:45.555Z,40.54
2019-06-07T07:15:18.787Z,40.52
2019-06-07T07:15:58.178Z,40.88
2019-06-07T07:16:29.940Z,41.06
2019-06-07T07:17:05.389Z,39.39
2019-06-07T07:17:58.310Z,40.58
2019-06-07T07:18:16.197Z,39.39
2019-06-07T07:18:54.432Z,39.00
2019-06-07T07:19:27.130Z,39.29
2019-06-07T07:20:02.704Z,40.86
2019-06-07T07:20:38.136Z,40.55
2019-06-07T07:21:13.621Z,38.96
2019-06-07T07:21:50.612Z,38.76
2019-06-07T07:22:24.437Z,38.66
2019-06-07T07:22:59.570Z,38.46
2019-06-07T07:23:35.144Z,38.56
2019-06-07T07:24:21.107Z,38.26
2019-06-07T07:24:47.027Z,38.36
2019-06-07T07:25:21.223Z,39.15
2019-06-07T07:25:59.632Z,40.63
2019-06-07T07:26:31.902Z,38.74
2019-06-07T07:27:07.086Z,37.77
2019-06-07T07:27:42.629Z,39.09
2019-06-07T07:28:18.102Z,39.51
2019-06-07T07:28:57.243Z,40.82
2019-06-07T07:29:29.826Z,40.42
2019-06-07T07:30:35.568Z,41.25
2019-06-07T07:30:41.936Z,41.60
2019-06-07T07:31:16.123Z,41.30
2019-06-07T07:31:54.393Z,41.69
2019-06-07T07:32:26.965Z,40.80
2019-06-07T07:33:03.192Z,41.99
2019-06-07T07:34:23.839Z,41.12
2019-06-07T07:34:32.505Z,41.53
2019-06-07T07:34:51.790Z,41.93
2019-06-07T07:35:23.926Z,41.85
2019-06-07T07:36:38.147Z,43.55
2019-06-07T07:36:39.478Z,43.77
2019-06-07T07:37:10.171Z,42.87
2019-06-07T07:37:46.175Z,42.97
2019-06-07T07:38:20.703Z,41.88